LIRN/NAP METAR and TAF weather

Enter ICAO airport designator
Station Type Date Time Source
LIRN METAR 2022/11/30 18:20 UTC NOAA

LIRN 301820Z 02006KT 9999 SCT060 11/04 Q1011 NOSIG


Station Type Date Time Source
LIRN Decoded METAR 2022/11/30 18:20 UTC NOAA

Napoli / Capodichino, Italy (LIRN) 40-51N 014-18E 72M
Nov 30, 2022 - 01:20 PM EST / 2022.11.30 1820 UTC
Wind: from the NNE (020 degrees) at 7 MPH (6 KT):0
Visibility: greater than 7 mile(s):0
Sky conditions: partly cloudy
Temperature: 51 F (11 C)
Dew Point: 39 F (4 C)
Relative Humidity: 61%
Pressure (altimeter): 29.85 in. Hg (1011 hPa)
ob: LIRN 301820Z 02006KT 9999 SCT060 11/04 Q1011 NOSIG
cycle: 18

Station Type Date Time Source
LIRN TAF 2022/11/30 18:21 UTC NOAA

TAF LIRN 301700Z 3018/0118 VRB05KT 9999 SCT060

Example: see airport list